createdAt,value
2018-07-07T00:01:16.205Z,98424.53
2018-07-07T00:03:44.729Z,98438.30
2018-07-07T00:06:13.243Z,98430.72
2018-07-07T00:08:41.824Z,98437.23
2018-07-07T00:11:10.342Z,98438.08
2018-07-07T00:13:38.874Z,98437.51
2018-07-07T00:16:07.434Z,98426.13
2018-07-07T00:18:35.913Z,98430.20
2018-07-07T00:21:04.454Z,98428.03
2018-07-07T00:23:33.042Z,98430.70
2018-07-07T00:26:02.703Z,98434.98
2018-07-07T00:28:31.726Z,98436.33
2018-07-07T00:31:00.319Z,98435.56
2018-07-07T00:33:28.869Z,98436.30
2018-07-07T00:35:57.454Z,98441.38
2018-07-07T00:38:25.963Z,98436.53
2018-07-07T00:40:54.493Z,98439.78
2018-07-07T00:43:23.001Z,98441.37
2018-07-07T00:45:51.957Z,98445.94
2018-07-07T00:48:20.529Z,98444.06
2018-07-07T00:50:49.108Z,98452.08
2018-07-07T00:53:17.648Z,98449.07
2018-07-07T00:55:46.177Z,98448.78
2018-07-07T00:58:15.497Z,98447.35
2018-07-07T01:00:51.677Z,98447.09
2018-07-07T01:03:20.875Z,98452.22
2018-07-07T01:05:49.624Z,98453.59
2018-07-07T01:08:18.866Z,98457.72
2018-07-07T01:10:47.361Z,98454.66
2018-07-07T01:13:16.239Z,98457.33
2018-07-07T01:15:44.778Z,98458.27
2018-07-07T01:18:13.331Z,98458.03
2018-07-07T01:20:41.860Z,98460.96
2018-07-07T01:23:10.399Z,98457.80
2018-07-07T01:25:38.897Z,98459.67
2018-07-07T01:28:07.542Z,98461.38
2018-07-07T01:30:36.049Z,98463.45
2018-07-07T01:33:04.622Z,98460.76
2018-07-07T01:35:33.115Z,98462.41
2018-07-07T01:38:01.707Z,98459.48
2018-07-07T01:40:30.241Z,98463.03
2018-07-07T01:42:58.784Z,98464.61
2018-07-07T01:45:27.290Z,98464.88
2018-07-07T01:47:55.899Z,98466.02
2018-07-07T01:50:24.386Z,98468.00
2018-07-07T01:52:52.924Z,98469.02
2018-07-07T01:55:21.440Z,98474.41
2018-07-07T01:57:50.010Z,98470.86
2018-07-07T02:00:18.542Z,98471.42
2018-07-07T02:02:47.042Z,98464.94
2018-07-07T02:05:15.535Z,98467.98
2018-07-07T02:07:44.078Z,98464.13
2018-07-07T02:10:12.654Z,98463.53
2018-07-07T02:12:41.181Z,98471.30
2018-07-07T02:15:09.829Z,98466.45
2018-07-07T02:17:38.348Z,98468.09
2018-07-07T02:20:06.832Z,98472.12
2018-07-07T02:22:35.403Z,98468.27
2018-07-07T02:25:03.981Z,98473.56
2018-07-07T02:27:32.529Z,98477.09
2018-07-07T02:30:01.062Z,98469.53
2018-07-07T02:32:29.598Z,98474.66
2018-07-07T02:34:58.103Z,98481.65
2018-07-07T02:37:26.674Z,98479.16
2018-07-07T02:39:55.177Z,98477.95
2018-07-07T02:42:23.690Z,98485.30
2018-07-07T02:44:52.177Z,98480.20
2018-07-07T02:47:20.722Z,98480.11
2018-07-07T02:49:49.218Z,98479.08
2018-07-07T02:52:17.749Z,98481.88
2018-07-07T02:54:46.291Z,98481.27
2018-07-07T02:57:14.847Z,98485.05
2018-07-07T02:59:43.429Z,98483.98
2018-07-07T03:02:11.945Z,98484.05
2018-07-07T03:04:40.494Z,98490.30
2018-07-07T03:07:09.026Z,98497.71
2018-07-07T03:09:37.565Z,98495.36
2018-07-07T03:12:06.211Z,98502.02
2018-07-07T03:14:34.748Z,98509.52
2018-07-07T03:17:03.321Z,98508.55
2018-07-07T03:19:31.853Z,98507.39
2018-07-07T03:22:00.346Z,98511.52
2018-07-07T03:24:28.876Z,98516.70
2018-07-07T03:26:57.359Z,98526.25
2018-07-07T03:29:25.913Z,98533.34
2018-07-07T03:31:54.450Z,98528.58
2018-07-07T03:34:22.955Z,98531.02
2018-07-07T03:36:51.457Z,98532.77
2018-07-07T03:39:19.993Z,98528.38
2018-07-07T03:41:48.466Z,98534.77
2018-07-07T03:44:17.002Z,98531.27
2018-07-07T03:46:45.518Z,98533.62
2018-07-07T03:49:14.410Z,98544.62
2018-07-07T03:51:42.912Z,98543.22
2018-07-07T03:54:11.485Z,98553.20
2018-07-07T03:56:39.991Z,98551.56
2018-07-07T03:59:08.499Z,98544.85
2018-07-07T04:01:36.980Z,98551.75
2018-07-07T04:04:05.599Z,98545.28
2018-07-07T04:06:34.154Z,98541.86
2018-07-07T04:09:02.776Z,98544.75
2018-07-07T04:11:31.274Z,98546.87
2018-07-07T04:13:59.827Z,98544.28
2018-07-07T04:16:28.349Z,98549.23
2018-07-07T04:18:56.898Z,98544.87
2018-07-07T04:21:25.470Z,98546.03
2018-07-07T04:23:54.030Z,98545.78
2018-07-07T04:26:22.554Z,98549.57
2018-07-07T04:28:51.142Z,98549.02
2018-07-07T04:31:19.648Z,98554.67
2018-07-07T04:33:48.270Z,98553.43
2018-07-07T04:36:16.790Z,98547.78
2018-07-07T04:38:45.330Z,98555.54
2018-07-07T04:41:13.885Z,98560.97
2018-07-07T04:43:42.414Z,98561.55
2018-07-07T04:46:10.914Z,98558.28
2018-07-07T04:48:39.425Z,98552.81
2018-07-07T04:51:07.949Z,98555.55
2018-07-07T04:53:36.529Z,98560.22
2018-07-07T04:56:05.278Z,98561.40
2018-07-07T04:58:33.795Z,98563.40
2018-07-07T05:01:02.351Z,98556.84
2018-07-07T05:03:30.874Z,98558.56
2018-07-07T05:05:59.398Z,98564.30
2018-07-07T05:08:27.857Z,98567.23
2018-07-07T05:10:56.450Z,98573.84
2018-07-07T05:13:24.986Z,98574.11
2018-07-07T05:15:53.519Z,98571.22
2018-07-07T05:18:22.022Z,98572.19
2018-07-07T05:20:50.565Z,98577.25
2018-07-07T05:23:19.041Z,98576.80
2018-07-07T05:25:47.597Z,98576.77
2018-07-07T05:28:16.076Z,98573.63
2018-07-07T05:30:44.586Z,98573.55
2018-07-07T05:33:13.097Z,98577.92
2018-07-07T05:35:41.620Z,98583.12
2018-07-07T05:38:10.122Z,98575.87
2018-07-07T05:40:38.626Z,98576.23
2018-07-07T05:43:07.150Z,98575.35
2018-07-07T05:45:35.634Z,98572.18
2018-07-07T05:48:04.214Z,98576.02
2018-07-07T05:50:32.796Z,98579.62
2018-07-07T05:53:04.980Z,98577.45
2018-07-07T05:55:34.692Z,98575.00
2018-07-07T05:58:03.225Z,98580.55
2018-07-07T06:00:31.965Z,98581.11
2018-07-07T06:03:00.482Z,98576.88
2018-07-07T06:05:29.050Z,98573.98
2018-07-07T06:07:57.659Z,98578.69
2018-07-07T06:10:26.186Z,98574.69
2018-07-07T06:12:54.687Z,98584.58
2018-07-07T06:15:24.507Z,98581.03
2018-07-07T06:17:53.105Z,98583.98
2018-07-07T06:20:21.662Z,98583.94
2018-07-07T06:22:50.176Z,98584.28
2018-07-07T06:25:18.937Z,98579.97
2018-07-07T06:27:47.447Z,98580.23
2018-07-07T06:30:16.655Z,98581.47
2018-07-07T06:32:45.150Z,98583.51
2018-07-07T06:35:18.576Z,98589.78
2018-07-07T06:37:47.049Z,98590.09
2018-07-07T06:40:15.566Z,98599.09
2018-07-07T06:42:44.110Z,98590.17
2018-07-07T06:45:12.625Z,98598.56
2018-07-07T06:47:41.475Z,98597.32
2018-07-07T06:50:09.999Z,98592.83
2018-07-07T06:52:38.479Z,98595.55
2018-07-07T06:55:07.114Z,98596.08
2018-07-07T06:57:35.597Z,98593.13
2018-07-07T07:00:04.222Z,98592.30
2018-07-07T07:02:32.750Z,98591.48
2018-07-07T07:05:01.228Z,98589.86
2018-07-07T07:07:29.745Z,98593.63
2018-07-07T07:09:58.250Z,98594.66
2018-07-07T07:12:26.969Z,98593.27
2018-07-07T07:14:55.514Z,98593.76
2018-07-07T07:17:24.071Z,98598.84
2018-07-07T07:19:52.814Z,98595.83
2018-07-07T07:22:21.334Z,98589.27
2018-07-07T07:24:49.867Z,98596.55
2018-07-07T07:27:18.582Z,98592.55
2018-07-07T07:29:47.133Z,98593.06
2018-07-07T07:32:15.962Z,98594.86
2018-07-07T07:34:44.500Z,98589.72
2018-07-07T07:37:13.034Z,98593.88
2018-07-07T07:39:41.800Z,98586.12
2018-07-07T07:42:10.350Z,98587.95
2018-07-07T07:44:38.867Z,98586.41
2018-07-07T07:47:07.436Z,98586.79
2018-07-07T07:49:35.950Z,98586.12
2018-07-07T07:52:04.445Z,98588.52
2018-07-07T07:54:32.933Z,98581.41
2018-07-07T07:57:01.483Z,98587.31
2018-07-07T07:59:29.977Z,98581.63
2018-07-07T08:01:58.498Z,98578.78
2018-07-07T08:04:27.180Z,98577.33
2018-07-07T08:06:55.657Z,98584.61
2018-07-07T08:09:24.118Z,98584.94
2018-07-07T08:11:53.075Z,98593.58
2018-07-07T08:14:21.541Z,98590.20
2018-07-07T08:16:50.046Z,98583.66
2018-07-07T08:19:18.687Z,98583.47
2018-07-07T08:21:47.185Z,98586.83
2018-07-07T08:24:15.746Z,98588.22
2018-07-07T08:26:44.550Z,98590.40
2018-07-07T08:29:13.262Z,98592.70
2018-07-07T08:31:41.922Z,98595.80
2018-07-07T08:34:10.389Z,98588.20
2018-07-07T08:36:38.925Z,98588.95
2018-07-07T08:39:07.422Z,98588.08
2018-07-07T08:41:35.913Z,98591.11
2018-07-07T08:44:04.392Z,98590.39
2018-07-07T08:46:32.893Z,98589.55
2018-07-07T08:49:01.436Z,98591.55
2018-07-07T08:51:29.958Z,98597.66
2018-07-07T08:53:58.865Z,98601.02
2018-07-07T08:56:27.362Z,98594.73
2018-07-07T08:58:55.880Z,98591.55
2018-07-07T09:01:24.350Z,98590.91
2018-07-07T09:03:52.839Z,98580.63
2018-07-07T09:06:21.290Z,98578.93
2018-07-07T09:08:49.819Z,98586.88
2018-07-07T09:11:18.334Z,98592.74
2018-07-07T09:13:46.857Z,98583.53
2018-07-07T09:16:15.338Z,98595.11
2018-07-07T09:18:43.928Z,98586.86
2018-07-07T09:21:12.389Z,98596.66
2018-07-07T09:23:40.938Z,98595.38
2018-07-07T09:26:09.422Z,98583.79
2018-07-07T09:28:37.932Z,98583.17
2018-07-07T09:31:07.087Z,98583.27
2018-07-07T09:33:35.567Z,98585.73
2018-07-07T09:36:04.074Z,98587.55
2018-07-07T09:38:32.626Z,98593.41
2018-07-07T09:41:01.095Z,98581.79
2018-07-07T09:43:29.571Z,98577.88
2018-07-07T09:45:58.028Z,98578.59
2018-07-07T09:48:26.512Z,98576.27
2018-07-07T09:50:54.965Z,98582.89
2018-07-07T09:53:23.490Z,98576.84
2018-07-07T09:55:51.990Z,98578.02
2018-07-07T09:58:20.494Z,98575.42
2018-07-07T10:00:49.011Z,98573.64
2018-07-07T10:03:17.522Z,98568.34
2018-07-07T10:05:45.998Z,98570.63
2018-07-07T10:08:14.494Z,98569.40
2018-07-07T10:10:42.997Z,98569.25
2018-07-07T10:13:11.535Z,98564.11
2018-07-07T10:15:40.011Z,98561.65
2018-07-07T10:18:08.545Z,98565.78
2018-07-07T10:20:37.143Z,98551.45
2018-07-07T10:23:05.597Z,98560.11
2018-07-07T10:25:34.088Z,98553.33
2018-07-07T10:28:02.625Z,98557.53
2018-07-07T10:30:31.158Z,98551.52
2018-07-07T10:32:59.635Z,98548.95
2018-07-07T10:35:28.132Z,98547.63
2018-07-07T10:37:56.609Z,98538.25
2018-07-07T10:40:25.161Z,98539.72
2018-07-07T10:42:53.634Z,98538.31
2018-07-07T10:45:22.162Z,98542.89
2018-07-07T10:47:50.671Z,98542.04
2018-07-07T10:50:19.230Z,98537.69
2018-07-07T10:52:47.690Z,98533.23
2018-07-07T10:55:16.209Z,98535.55
2018-07-07T10:57:44.657Z,98538.08
2018-07-07T11:00:13.166Z,98532.77
2018-07-07T11:02:41.726Z,98523.22
2018-07-07T11:05:10.250Z,98519.64
2018-07-07T11:07:38.721Z,98517.78
2018-07-07T11:10:07.268Z,98517.79
2018-07-07T11:12:35.751Z,98518.11
2018-07-07T11:15:04.310Z,98514.55
2018-07-07T11:17:32.825Z,98522.78
2018-07-07T11:20:01.387Z,98519.25
2018-07-07T11:22:29.806Z,98520.83
2018-07-07T11:24:58.315Z,98516.94
2018-07-07T11:27:26.775Z,98515.67
2018-07-07T11:29:55.299Z,98514.77
2018-07-07T11:32:23.702Z,98508.20
2018-07-07T11:34:52.193Z,98505.38
2018-07-07T11:37:20.671Z,98506.53
2018-07-07T11:39:49.202Z,98507.22
2018-07-07T11:42:17.704Z,98499.38
2018-07-07T11:44:46.202Z,98508.74
2018-07-07T11:47:14.770Z,98507.63
2018-07-07T11:49:43.250Z,98504.33
2018-07-07T11:52:11.758Z,98505.34
2018-07-07T11:54:40.245Z,98506.30
2018-07-07T11:57:08.727Z,98496.25
2018-07-07T11:59:37.209Z,98500.91
2018-07-07T12:02:05.798Z,98495.52
2018-07-07T12:04:34.347Z,98493.70
2018-07-07T12:07:02.898Z,98497.56
2018-07-07T12:09:31.381Z,98493.58
2018-07-07T12:11:59.902Z,98488.92
2018-07-07T12:14:28.394Z,98488.83
2018-07-07T12:16:56.858Z,98482.35
2018-07-07T12:19:25.351Z,98478.85
2018-07-07T12:21:53.833Z,98472.28
2018-07-07T12:24:22.349Z,98466.92
2018-07-07T12:26:50.949Z,98466.41
2018-07-07T12:29:19.408Z,98468.67
2018-07-07T12:31:47.916Z,98464.65
2018-07-07T12:34:16.369Z,98460.66
2018-07-07T12:36:44.955Z,98460.70
2018-07-07T12:39:13.675Z,98461.37
2018-07-07T12:44:09.613Z,98453.23
2018-07-07T12:46:38.094Z,98445.09
2018-07-07T12:49:06.610Z,98444.05
2018-07-07T12:51:35.167Z,98451.80
2018-07-07T12:54:03.621Z,98447.33
2018-07-07T12:56:32.159Z,98442.88
2018-07-07T12:59:00.634Z,98437.33
2018-07-07T13:01:29.125Z,98443.15
2018-07-07T13:03:57.593Z,98431.78
2018-07-07T13:06:28.713Z,98433.77
2018-07-07T13:08:57.191Z,98432.63
2018-07-07T13:11:25.681Z,98432.09
2018-07-07T13:13:54.345Z,98424.61
2018-07-07T13:16:22.866Z,98429.62
2018-07-07T13:18:51.378Z,98429.09
2018-07-07T13:21:19.890Z,98422.06
2018-07-07T13:23:48.350Z,98421.61
2018-07-07T13:26:17.003Z,98421.69
2018-07-07T13:28:45.438Z,98425.58
2018-07-07T13:31:13.896Z,98428.09
2018-07-07T13:33:42.395Z,98422.44
2018-07-07T13:36:10.882Z,98418.71
2018-07-07T13:38:39.448Z,98413.33
2018-07-07T13:41:09.997Z,98414.16
2018-07-07T13:43:39.276Z,98413.91
2018-07-07T13:46:07.860Z,98416.65
2018-07-07T13:48:36.418Z,98407.47
2018-07-07T13:51:04.934Z,98410.63
2018-07-07T13:53:33.742Z,98406.61
2018-07-07T13:56:02.314Z,98409.42
2018-07-07T13:58:30.820Z,98406.00
2018-07-07T14:01:02.525Z,98407.69
2018-07-07T14:03:31.030Z,98406.41
2018-07-07T14:05:59.623Z,98406.66
2018-07-07T14:08:28.150Z,98400.16
2018-07-07T14:10:56.696Z,98391.86
2018-07-07T14:13:25.242Z,98396.02
2018-07-07T14:15:53.824Z,98394.66
2018-07-07T14:18:22.326Z,98395.02
2018-07-07T14:20:50.836Z,98392.27
2018-07-07T14:23:19.382Z,98389.14
2018-07-07T14:25:47.865Z,98393.61
2018-07-07T14:28:16.429Z,98400.99
2018-07-07T14:30:44.916Z,98389.09
2018-07-07T14:33:13.437Z,98391.11
2018-07-07T14:35:42.077Z,98393.20
2018-07-07T14:38:11.462Z,98388.56
2018-07-07T14:40:49.800Z,98388.33
2018-07-07T14:43:18.332Z,98381.70
2018-07-07T14:45:58.004Z,98380.77
2018-07-07T14:48:26.521Z,98384.66
2018-07-07T14:50:55.007Z,98374.48
2018-07-07T14:53:23.521Z,98378.17
2018-07-07T14:55:52.057Z,98375.54
2018-07-07T14:58:20.676Z,98370.75
2018-07-07T15:00:49.110Z,98372.41
2018-07-07T15:03:17.660Z,98357.66
2018-07-07T15:05:46.145Z,98365.19
2018-07-07T15:08:14.622Z,98364.84
2018-07-07T15:10:43.138Z,98366.03
2018-07-07T15:13:11.663Z,98360.27
2018-07-07T15:15:40.352Z,98365.08
2018-07-07T15:18:08.691Z,98354.03
2018-07-07T15:20:37.264Z,98357.36
2018-07-07T15:23:06.134Z,98360.67
2018-07-07T15:25:34.682Z,98361.98
2018-07-07T15:28:03.302Z,98366.34
2018-07-07T15:30:31.973Z,98364.19
2018-07-07T15:33:00.597Z,98361.28
2018-07-07T15:35:29.124Z,98351.85
2018-07-07T15:37:57.675Z,98356.45
2018-07-07T15:40:26.282Z,98362.05
2018-07-07T15:42:54.851Z,98350.47
2018-07-07T15:45:23.481Z,98354.91
2018-07-07T15:47:51.971Z,98354.13
2018-07-07T15:50:20.573Z,98354.44
2018-07-07T15:52:49.338Z,98349.83
2018-07-07T15:55:17.829Z,98350.16
2018-07-07T15:57:46.334Z,98347.39
2018-07-07T16:00:15.259Z,98346.02
2018-07-07T16:02:43.805Z,98344.44
2018-07-07T16:05:12.382Z,98345.42
2018-07-07T16:07:40.944Z,98339.98
2018-07-07T16:10:09.532Z,98332.19
2018-07-07T16:12:38.987Z,98342.66
2018-07-07T16:15:07.571Z,98334.39
2018-07-07T16:17:36.121Z,98330.61
2018-07-07T16:20:04.831Z,98332.05
2018-07-07T16:22:33.818Z,98332.11
2018-07-07T16:25:04.192Z,98315.77
2018-07-07T16:27:32.827Z,98325.80
2018-07-07T16:30:01.428Z,98324.87
2018-07-07T16:32:29.896Z,98316.96
2018-07-07T16:34:58.755Z,98317.99
2018-07-07T16:37:27.302Z,98321.19
2018-07-07T16:39:55.938Z,98323.68
2018-07-07T16:42:25.491Z,98320.52
2018-07-07T16:44:54.730Z,98320.05
2018-07-07T16:47:23.272Z,98314.30
2018-07-07T16:49:51.901Z,98322.03
2018-07-07T16:52:20.414Z,98325.72
2018-07-07T16:54:49.546Z,98324.23
2018-07-07T16:57:18.212Z,98318.16
2018-07-07T16:59:46.773Z,98319.40
2018-07-07T17:02:16.514Z,98321.86
2018-07-07T17:04:45.064Z,98323.38
2018-07-07T17:10:06.332Z,98326.23
2018-07-07T17:12:40.773Z,98321.06
2018-07-07T17:15:09.377Z,98323.65
2018-07-07T17:17:37.962Z,98331.56
2018-07-07T17:20:06.590Z,98322.33
2018-07-07T17:22:35.205Z,98321.72
2018-07-07T17:25:03.844Z,98318.59
2018-07-07T17:27:32.843Z,98324.40
2018-07-07T17:30:01.595Z,98317.17
2018-07-07T17:32:31.201Z,98322.05
2018-07-07T17:34:59.947Z,98311.53
2018-07-07T17:37:28.594Z,98313.12
2018-07-07T17:39:57.247Z,98308.16
2018-07-07T17:42:25.901Z,98312.57
2018-07-07T17:44:54.473Z,98314.72
2018-07-07T17:47:23.192Z,98311.56
2018-07-07T17:49:51.807Z,98305.27
2018-07-07T17:52:20.385Z,98311.12
2018-07-07T17:54:49.263Z,98309.73
2018-07-07T17:57:19.969Z,98310.84
2018-07-07T17:59:48.673Z,98308.80
2018-07-07T18:02:17.253Z,98313.89
2018-07-07T18:04:45.836Z,98307.59
2018-07-07T18:07:14.376Z,98315.42
2018-07-07T18:09:42.869Z,98320.03
2018-07-07T18:12:11.408Z,98304.66
2018-07-07T18:14:45.833Z,98314.03
2018-07-07T18:17:14.366Z,98308.82
2018-07-07T18:19:42.910Z,98307.73
2018-07-07T18:22:11.481Z,98308.67
2018-07-07T18:24:40.029Z,98313.39
2018-07-07T18:27:08.630Z,98316.59
2018-07-07T18:29:37.650Z,98324.50
2018-07-07T18:32:06.615Z,98320.81
2018-07-07T18:34:35.145Z,98323.34
2018-07-07T18:37:03.708Z,98320.66
2018-07-07T18:39:36.485Z,98319.14
2018-07-07T18:42:05.170Z,98319.79
2018-07-07T18:44:33.685Z,98320.64
2018-07-07T18:47:02.248Z,98324.59
2018-07-07T18:49:30.804Z,98322.28
2018-07-07T18:51:59.797Z,98320.10
2018-07-07T18:54:28.330Z,98318.25
2018-07-07T18:56:56.867Z,98325.27
2018-07-07T18:59:25.395Z,98327.80
2018-07-07T19:01:54.031Z,98319.73
2018-07-07T19:04:23.061Z,98322.34
2018-07-07T19:06:51.596Z,98324.78
2018-07-07T19:09:20.086Z,98328.10
2018-07-07T19:11:48.645Z,98326.44
2018-07-07T19:14:17.203Z,98330.37
2018-07-07T19:16:45.753Z,98335.80
2018-07-07T19:19:14.393Z,98331.32
2018-07-07T19:21:48.054Z,98329.91
2018-07-07T19:24:22.301Z,98329.28
2018-07-07T19:26:52.428Z,98335.53
2018-07-07T19:29:22.245Z,98338.67
2018-07-07T19:31:56.144Z,98343.73
2018-07-07T19:34:30.557Z,98346.31
2018-07-07T19:37:04.374Z,98338.41
2018-07-07T19:39:32.971Z,98349.55
2018-07-07T19:42:01.555Z,98345.69
2018-07-07T19:44:30.977Z,98349.62
2018-07-07T19:46:59.559Z,98348.39
2018-07-07T19:49:28.121Z,98350.33
2018-07-07T19:51:56.676Z,98350.86
2018-07-07T19:54:25.256Z,98352.92
2018-07-07T19:56:59.615Z,98357.93
2018-07-07T19:59:28.169Z,98360.17
2018-07-07T20:01:56.760Z,98357.55
2018-07-07T20:04:25.441Z,98363.94
2018-07-07T20:06:54.039Z,98362.34
2018-07-07T20:09:23.613Z,98360.82
2018-07-07T20:11:52.186Z,98363.61
2018-07-07T20:14:24.449Z,98363.89
2018-07-07T20:17:01.469Z,98362.25
2018-07-07T20:19:40.145Z,98361.75
2018-07-07T20:22:08.771Z,98359.61
2018-07-07T20:24:38.998Z,98369.09
2018-07-07T20:27:13.449Z,98364.53
2018-07-07T20:29:43.040Z,98369.84
2018-07-07T20:32:16.826Z,98366.89
2018-07-07T20:34:45.394Z,98365.52
2018-07-07T20:37:13.938Z,98366.64
2018-07-07T20:39:42.470Z,98370.45
2018-07-07T20:42:10.974Z,98373.69
2018-07-07T20:44:39.566Z,98368.84
2018-07-07T20:47:08.079Z,98371.84
2018-07-07T20:49:36.631Z,98373.45
2018-07-07T20:52:05.198Z,98372.38
2018-07-07T20:54:33.723Z,98375.34
2018-07-07T20:57:02.262Z,98378.88
2018-07-07T20:59:30.756Z,98380.20
2018-07-07T21:02:09.353Z,98382.39
2018-07-07T21:04:37.856Z,98376.72
2018-07-07T21:07:06.408Z,98379.42
2018-07-07T21:09:34.909Z,98376.98
2018-07-07T21:12:03.442Z,98378.63
2018-07-07T21:14:31.937Z,98375.38
2018-07-07T21:17:00.466Z,98379.14
2018-07-07T21:19:29.029Z,98379.14
2018-07-07T21:21:57.606Z,98381.33
2018-07-07T21:24:27.621Z,98380.77
2018-07-07T21:26:56.183Z,98376.98
2018-07-07T21:29:24.827Z,98378.09
2018-07-07T21:31:53.319Z,98375.07
2018-07-07T21:34:21.801Z,98375.09
2018-07-07T21:36:50.320Z,98375.34
2018-07-07T21:39:18.837Z,98382.88
2018-07-07T21:41:47.382Z,98383.03
2018-07-07T21:44:17.645Z,98381.41
2018-07-07T21:46:46.164Z,98382.73
2018-07-07T21:49:14.742Z,98381.88
2018-07-07T21:51:43.269Z,98383.20
2018-07-07T21:54:11.810Z,98385.37
2018-07-07T21:56:40.376Z,98378.11
2018-07-07T21:59:14.074Z,98387.27
2018-07-07T22:01:55.469Z,98381.08
2018-07-07T22:04:29.930Z,98395.13
2018-07-07T22:07:03.990Z,98389.91
2018-07-07T22:09:33.631Z,98395.30
2018-07-07T22:12:02.965Z,98391.55
2018-07-07T22:14:31.843Z,98398.80
2018-07-07T22:17:00.385Z,98399.04
2018-07-07T22:19:28.904Z,98402.25
2018-07-07T22:22:08.286Z,98395.73
2018-07-07T22:24:37.229Z,98400.08
2018-07-07T22:27:08.810Z,98393.57
2018-07-07T22:29:37.354Z,98388.13
2018-07-07T22:32:11.196Z,98389.81
2018-07-07T22:34:40.286Z,98391.14
2018-07-07T22:37:09.159Z,98391.72
2018-07-07T22:39:39.109Z,98387.13
2018-07-07T22:42:08.987Z,98392.17
2018-07-07T22:44:38.424Z,98390.27
2018-07-07T22:47:07.474Z,98390.64
2018-07-07T22:49:36.011Z,98386.24
2018-07-07T22:52:06.173Z,98387.95
2018-07-07T22:54:34.733Z,98387.39
2018-07-07T22:57:03.269Z,98384.17
2018-07-07T22:59:32.549Z,98385.22
2018-07-07T23:02:01.062Z,98381.97
2018-07-07T23:04:29.621Z,98383.08
2018-07-07T23:06:58.161Z,98383.31
2018-07-07T23:09:26.824Z,98377.89
2018-07-07T23:11:55.343Z,98377.83
2018-07-07T23:14:24.053Z,98380.22
2018-07-07T23:16:52.629Z,98382.32
2018-07-07T23:19:23.019Z,98382.77
2018-07-07T23:21:51.553Z,98380.08
2018-07-07T23:24:20.100Z,98383.30
2018-07-07T23:26:48.639Z,98381.69
2018-07-07T23:29:17.312Z,98387.34
2018-07-07T23:31:45.836Z,98384.38
2018-07-07T23:34:14.405Z,98387.04
2018-07-07T23:36:42.966Z,98382.25
2018-07-07T23:39:11.545Z,98381.27
2018-07-07T23:41:40.053Z,98373.41
2018-07-07T23:44:08.615Z,98384.59
2018-07-07T23:46:39.125Z,98378.05
2018-07-07T23:49:07.715Z,98384.92
2018-07-07T23:51:36.260Z,98379.13
2018-07-07T23:54:04.896Z,98379.48
2018-07-07T23:56:33.446Z,98377.06
2018-07-07T23:59:01.996Z,98379.03
